sensor_id;sensor_type;location;lat;lon;timestamp;P1;durP1;ratioP1;P2;durP2;ratioP2
11709;SDS011;5911;51.036;6.972;2024-03-25T00:02:19;11.45;;;3.00;;
11709;SDS011;5911;51.036;6.972;2024-03-25T00:04:45;9.27;;;3.10;;
11709;SDS011;5911;51.036;6.972;2024-03-25T00:07:11;8.53;;;3.00;;
11709;SDS011;5911;51.036;6.972;2024-03-25T00:09:37;6.63;;;2.33;;
11709;SDS011;5911;51.036;6.972;2024-03-25T00:12:04;10.55;;;3.03;;
11709;SDS011;5911;51.036;6.972;2024-03-25T00:14:31;8.25;;;3.20;;
11709;SDS011;5911;51.036;6.972;2024-03-25T00:16:57;8.30;;;2.97;;
11709;SDS011;5911;51.036;6.972;2024-03-25T00:19:23;7.90;;;3.23;;
11709;SDS011;5911;51.036;6.972;2024-03-25T00:21:49;9.50;;;3.22;;
11709;SDS011;5911;51.036;6.972;2024-03-25T00:24:15;6.90;;;2.88;;
11709;SDS011;5911;51.036;6.972;2024-03-25T00:26:42;7.13;;;3.43;;
11709;SDS011;5911;51.036;6.972;2024-03-25T00:29:07;13.63;;;3.35;;
11709;SDS011;5911;51.036;6.972;2024-03-25T00:31:35;12.40;;;3.30;;
11709;SDS011;5911;51.036;6.972;2024-03-25T00:34:01;10.63;;;2.87;;
11709;SDS011;5911;51.036;6.972;2024-03-25T00:36:27;8.23;;;2.80;;
11709;SDS011;5911;51.036;6.972;2024-03-25T00:38:53;8.17;;;3.23;;
11709;SDS011;5911;51.036;6.972;2024-03-25T00:41:20;7.10;;;3.70;;
11709;SDS011;5911;51.036;6.972;2024-03-25T00:43:46;7.27;;;3.33;;
11709;SDS011;5911;51.036;6.972;2024-03-25T00:46:13;8.23;;;3.00;;
11709;SDS011;5911;51.036;6.972;2024-03-25T00:48:40;7.47;;;3.50;;
11709;SDS011;5911;51.036;6.972;2024-03-25T00:51:08;9.13;;;3.83;;
11709;SDS011;5911;51.036;6.972;2024-03-25T00:53:33;9.90;;;3.73;;
11709;SDS011;5911;51.036;6.972;2024-03-25T00:56:00;9.57;;;3.80;;
11709;SDS011;5911;51.036;6.972;2024-03-25T00:58:26;10.80;;;4.47;;
11709;SDS011;5911;51.036;6.972;2024-03-25T01:00:53;10.67;;;3.80;;
11709;SDS011;5911;51.036;6.972;2024-03-25T01:03:19;7.53;;;3.67;;
11709;SDS011;5911;51.036;6.972;2024-03-25T01:05:46;9.43;;;4.07;;
11709;SDS011;5911;51.036;6.972;2024-03-25T01:08:12;9.27;;;3.60;;
11709;SDS011;5911;51.036;6.972;2024-03-25T01:10:40;8.17;;;3.87;;
11709;SDS011;5911;51.036;6.972;2024-03-25T01:13:05;9.43;;;3.87;;
11709;SDS011;5911;51.036;6.972;2024-03-25T01:15:32;6.57;;;3.33;;
11709;SDS011;5911;51.036;6.972;2024-03-25T01:17:57;9.10;;;3.87;;
11709;SDS011;5911;51.036;6.972;2024-03-25T01:20:24;6.10;;;3.43;;
11709;SDS011;5911;51.036;6.972;2024-03-25T01:22:51;6.70;;;3.33;;
11709;SDS011;5911;51.036;6.972;2024-03-25T01:25:17;11.03;;;3.77;;
11709;SDS011;5911;51.036;6.972;2024-03-25T01:27:43;8.27;;;3.30;;
11709;SDS011;5911;51.036;6.972;2024-03-25T01:30:10;11.63;;;3.80;;
11709;SDS011;5911;51.036;6.972;2024-03-25T01:32:36;11.43;;;4.03;;
11709;SDS011;5911;51.036;6.972;2024-03-25T01:35:03;7.70;;;3.33;;
11709;SDS011;5911;51.036;6.972;2024-03-25T01:37:28;9.63;;;3.63;;
11709;SDS011;5911;51.036;6.972;2024-03-25T01:39:56;9.60;;;3.40;;
11709;SDS011;5911;51.036;6.972;2024-03-25T01:42:22;9.60;;;4.10;;
11709;SDS011;5911;51.036;6.972;2024-03-25T01:44:48;10.27;;;3.77;;
11709;SDS011;5911;51.036;6.972;2024-03-25T01:47:14;10.10;;;4.00;;
11709;SDS011;5911;51.036;6.972;2024-03-25T01:49:42;8.33;;;3.40;;
11709;SDS011;5911;51.036;6.972;2024-03-25T01:52:07;9.20;;;3.27;;
11709;SDS011;5911;51.036;6.972;2024-03-25T01:54:34;10.77;;;3.13;;
11709;SDS011;5911;51.036;6.972;2024-03-25T01:57:01;10.47;;;3.23;;
11709;SDS011;5911;51.036;6.972;2024-03-25T01:59:28;13.17;;;3.87;;
11709;SDS011;5911;51.036;6.972;2024-03-25T02:01:53;8.93;;;3.10;;
11709;SDS011;5911;51.036;6.972;2024-03-25T02:04:21;9.87;;;3.70;;
11709;SDS011;5911;51.036;6.972;2024-03-25T02:06:46;6.93;;;3.10;;
11709;SDS011;5911;51.036;6.972;2024-03-25T02:09:14;7.97;;;3.20;;
11709;SDS011;5911;51.036;6.972;2024-03-25T02:11:41;10.50;;;3.80;;
11709;SDS011;5911;51.036;6.972;2024-03-25T02:14:09;10.30;;;3.33;;
11709;SDS011;5911;51.036;6.972;2024-03-25T02:16:35;8.20;;;3.30;;
11709;SDS011;5911;51.036;6.972;2024-03-25T02:19:02;8.97;;;3.53;;
11709;SDS011;5911;51.036;6.972;2024-03-25T02:21:27;6.37;;;3.37;;
11709;SDS011;5911;51.036;6.972;2024-03-25T02:23:56;13.20;;;3.90;;
11709;SDS011;5911;51.036;6.972;2024-03-25T02:26:23;8.13;;;3.50;;
11709;SDS011;5911;51.036;6.972;2024-03-25T02:28:50;11.63;;;3.57;;
11709;SDS011;5911;51.036;6.972;2024-03-25T02:31:15;10.70;;;3.40;;
11709;SDS011;5911;51.036;6.972;2024-03-25T02:33:42;7.90;;;3.10;;
11709;SDS011;5911;51.036;6.972;2024-03-25T02:36:08;9.23;;;3.37;;
11709;SDS011;5911;51.036;6.972;2024-03-25T02:38:34;10.87;;;4.00;;
11709;SDS011;5911;51.036;6.972;2024-03-25T02:41:00;8.77;;;3.70;;
11709;SDS011;5911;51.036;6.972;2024-03-25T02:43:29;9.77;;;3.70;;
11709;SDS011;5911;51.036;6.972;2024-03-25T02:45:54;8.07;;;3.33;;
11709;SDS011;5911;51.036;6.972;2024-03-25T02:48:21;7.07;;;2.87;;
11709;SDS011;5911;51.036;6.972;2024-03-25T02:50:46;11.67;;;3.80;;
11709;SDS011;5911;51.036;6.972;2024-03-25T02:53:13;8.70;;;3.70;;
11709;SDS011;5911;51.036;6.972;2024-03-25T02:55:38;7.77;;;3.30;;
11709;SDS011;5911;51.036;6.972;2024-03-25T02:58:05;7.97;;;2.97;;
11709;SDS011;5911;51.036;6.972;2024-03-25T03:00:32;8.83;;;2.80;;
11709;SDS011;5911;51.036;6.972;2024-03-25T03:02:58;7.70;;;3.17;;
11709;SDS011;5911;51.036;6.972;2024-03-25T03:05:24;9.57;;;3.60;;
11709;SDS011;5911;51.036;6.972;2024-03-25T03:07:51;9.13;;;3.60;;
11709;SDS011;5911;51.036;6.972;2024-03-25T03:10:16;9.43;;;3.20;;
11709;SDS011;5911;51.036;6.972;2024-03-25T03:12:43;9.27;;;3.47;;
11709;SDS011;5911;51.036;6.972;2024-03-25T03:15:08;10.23;;;3.67;;
11709;SDS011;5911;51.036;6.972;2024-03-25T03:17:37;8.70;;;3.17;;
11709;SDS011;5911;51.036;6.972;2024-03-25T03:20:03;5.47;;;2.90;;
11709;SDS011;5911;51.036;6.972;2024-03-25T03:22:30;6.87;;;3.43;;
11709;SDS011;5911;51.036;6.972;2024-03-25T03:24:55;6.37;;;2.90;;
11709;SDS011;5911;51.036;6.972;2024-03-25T03:27:22;8.27;;;3.43;;
11709;SDS011;5911;51.036;6.972;2024-03-25T03:29:49;13.00;;;3.23;;
11709;SDS011;5911;51.036;6.972;2024-03-25T03:32:15;8.33;;;3.30;;
11709;SDS011;5911;51.036;6.972;2024-03-25T03:34:42;9.33;;;3.40;;
11709;SDS011;5911;51.036;6.972;2024-03-25T03:37:09;11.40;;;3.97;;
11709;SDS011;5911;51.036;6.972;2024-03-25T03:39:34;11.07;;;3.80;;
11709;SDS011;5911;51.036;6.972;2024-03-25T03:42:01;11.23;;;3.40;;
11709;SDS011;5911;51.036;6.972;2024-03-25T03:44:26;8.17;;;3.00;;
11709;SDS011;5911;51.036;6.972;2024-03-25T03:46:53;11.70;;;3.87;;
11709;SDS011;5911;51.036;6.972;2024-03-25T03:49:18;8.53;;;3.10;;
11709;SDS011;5911;51.036;6.972;2024-03-25T03:51:46;7.47;;;3.67;;
11709;SDS011;5911;51.036;6.972;2024-03-25T03:54:12;9.83;;;3.73;;
11709;SDS011;5911;51.036;6.972;2024-03-25T03:56:39;7.77;;;3.50;;
11709;SDS011;5911;51.036;6.972;2024-03-25T03:59:04;7.17;;;2.67;;
11709;SDS011;5911;51.036;6.972;2024-03-25T04:01:31;8.83;;;3.33;;
11709;SDS011;5911;51.036;6.972;2024-03-25T04:03:56;10.63;;;3.80;;
11709;SDS011;5911;51.036;6.972;2024-03-25T04:06:23;14.27;;;3.67;;
11709;SDS011;5911;51.036;6.972;2024-03-25T04:08:50;8.93;;;3.30;;
11709;SDS011;5911;51.036;6.972;2024-03-25T04:11:16;6.77;;;2.73;;
11709;SDS011;5911;51.036;6.972;2024-03-25T04:13:42;10.10;;;3.23;;
11709;SDS011;5911;51.036;6.972;2024-03-25T04:16:08;9.18;;;3.60;;
11709;SDS011;5911;51.036;6.972;2024-03-25T04:18:34;7.28;;;2.90;;
11709;SDS011;5911;51.036;6.972;2024-03-25T04:21:01;9.20;;;3.57;;
11709;SDS011;5911;51.036;6.972;2024-03-25T04:23:27;8.80;;;3.20;;
11709;SDS011;5911;51.036;6.972;2024-03-25T04:25:55;10.53;;;3.37;;
11709;SDS011;5911;51.036;6.972;2024-03-25T04:28:20;10.30;;;2.70;;
11709;SDS011;5911;51.036;6.972;2024-03-25T04:30:51;9.27;;;3.50;;
11709;SDS011;5911;51.036;6.972;2024-03-25T04:33:17;9.90;;;3.20;;
11709;SDS011;5911;51.036;6.972;2024-03-25T04:35:44;9.43;;;3.20;;
11709;SDS011;5911;51.036;6.972;2024-03-25T04:38:10;10.97;;;3.53;;
11709;SDS011;5911;51.036;6.972;2024-03-25T04:40:35;6.87;;;3.50;;
11709;SDS011;5911;51.036;6.972;2024-03-25T04:43:03;7.60;;;3.03;;
11709;SDS011;5911;51.036;6.972;2024-03-25T04:45:28;9.87;;;3.40;;
11709;SDS011;5911;51.036;6.972;2024-03-25T04:47:54;11.73;;;3.80;;
11709;SDS011;5911;51.036;6.972;2024-03-25T04:50:20;9.63;;;3.30;;
11709;SDS011;5911;51.036;6.972;2024-03-25T04:52:45;8.33;;;3.33;;
11709;SDS011;5911;51.036;6.972;2024-03-25T04:55:11;9.40;;;3.07;;
11709;SDS011;5911;51.036;6.972;2024-03-25T04:57:37;9.43;;;3.50;;
11709;SDS011;5911;51.036;6.972;2024-03-25T05:00:04;12.93;;;3.70;;
11709;SDS011;5911;51.036;6.972;2024-03-25T05:02:30;7.90;;;3.10;;
11709;SDS011;5911;51.036;6.972;2024-03-25T05:04:56;10.67;;;3.00;;
11709;SDS011;5911;51.036;6.972;2024-03-25T05:07:21;8.40;;;3.33;;
11709;SDS011;5911;51.036;6.972;2024-03-25T05:09:47;5.77;;;3.13;;
11709;SDS011;5911;51.036;6.972;2024-03-25T05:12:13;6.83;;;3.40;;
11709;SDS011;5911;51.036;6.972;2024-03-25T05:14:38;6.83;;;3.00;;
11709;SDS011;5911;51.036;6.972;2024-03-25T05:17:05;9.93;;;3.33;;
11709;SDS011;5911;51.036;6.972;2024-03-25T05:19:31;8.63;;;3.40;;
11709;SDS011;5911;51.036;6.972;2024-03-25T05:21:57;9.90;;;3.97;;
11709;SDS011;5911;51.036;6.972;2024-03-25T05:24:22;7.17;;;3.03;;
11709;SDS011;5911;51.036;6.972;2024-03-25T05:26:48;7.67;;;3.07;;
11709;SDS011;5911;51.036;6.972;2024-03-25T05:29:14;8.53;;;3.40;;
11709;SDS011;5911;51.036;6.972;2024-03-25T05:31:39;10.60;;;3.70;;
11709;SDS011;5911;51.036;6.972;2024-03-25T05:34:21;7.73;;;3.30;;
11709;SDS011;5911;51.036;6.972;2024-03-25T05:36:47;9.07;;;3.37;;
11709;SDS011;5911;51.036;6.972;2024-03-25T05:39:13;7.70;;;3.70;;
11709;SDS011;5911;51.036;6.972;2024-03-25T05:41:39;6.53;;;3.13;;
11709;SDS011;5911;51.036;6.972;2024-03-25T05:44:05;6.73;;;3.20;;
11709;SDS011;5911;51.036;6.972;2024-03-25T05:46:31;5.90;;;3.33;;
11709;SDS011;5911;51.036;6.972;2024-03-25T05:49:00;7.10;;;3.60;;
11709;SDS011;5911;51.036;6.972;2024-03-25T05:51:28;10.20;;;3.70;;
11709;SDS011;5911;51.036;6.972;2024-03-25T05:53:53;6.33;;;3.73;;
11709;SDS011;5911;51.036;6.972;2024-03-25T05:56:19;10.30;;;3.83;;
11709;SDS011;5911;51.036;6.972;2024-03-25T05:58:45;6.63;;;3.30;;
11709;SDS011;5911;51.036;6.972;2024-03-25T06:01:10;6.83;;;3.43;;
11709;SDS011;5911;51.036;6.972;2024-03-25T06:03:36;8.17;;;3.60;;
11709;SDS011;5911;51.036;6.972;2024-03-25T06:06:02;6.53;;;3.50;;
11709;SDS011;5911;51.036;6.972;2024-03-25T06:08:29;7.73;;;4.10;;
11709;SDS011;5911;51.036;6.972;2024-03-25T06:10:59;8.90;;;4.10;;
11709;SDS011;5911;51.036;6.972;2024-03-25T06:13:25;6.80;;;3.60;;
11709;SDS011;5911;51.036;6.972;2024-03-25T06:15:51;7.57;;;4.07;;
11709;SDS011;5911;51.036;6.972;2024-03-25T06:18:17;8.17;;;3.90;;
11709;SDS011;5911;51.036;6.972;2024-03-25T06:20:42;7.07;;;3.70;;
11709;SDS011;5911;51.036;6.972;2024-03-25T06:23:08;7.27;;;3.57;;
11709;SDS011;5911;51.036;6.972;2024-03-25T06:25:35;8.70;;;3.93;;
11709;SDS011;5911;51.036;6.972;2024-03-25T06:28:02;9.07;;;4.30;;
11709;SDS011;5911;51.036;6.972;2024-03-25T06:30:27;9.83;;;4.47;;
11709;SDS011;5911;51.036;6.972;2024-03-25T06:33:12;7.73;;;4.20;;
11709;SDS011;5911;51.036;6.972;2024-03-25T06:35:56;9.13;;;4.13;;
11709;SDS011;5911;51.036;6.972;2024-03-25T06:38:22;9.50;;;4.60;;
11709;SDS011;5911;51.036;6.972;2024-03-25T06:40:49;7.03;;;3.90;;
11709;SDS011;5911;51.036;6.972;2024-03-25T06:43:14;10.33;;;4.70;;
11709;SDS011;5911;51.036;6.972;2024-03-25T06:45:40;7.13;;;3.87;;
11709;SDS011;5911;51.036;6.972;2024-03-25T06:48:06;9.17;;;4.60;;
11709;SDS011;5911;51.036;6.972;2024-03-25T06:50:32;10.63;;;4.60;;
11709;SDS011;5911;51.036;6.972;2024-03-25T06:52:57;9.23;;;4.40;;
11709;SDS011;5911;51.036;6.972;2024-03-25T06:55:23;8.47;;;4.50;;
11709;SDS011;5911;51.036;6.972;2024-03-25T06:57:50;7.47;;;4.33;;
11709;SDS011;5911;51.036;6.972;2024-03-25T07:00:16;10.53;;;4.97;;
11709;SDS011;5911;51.036;6.972;2024-03-25T07:02:42;10.13;;;4.53;;
11709;SDS011;5911;51.036;6.972;2024-03-25T07:05:07;9.53;;;5.13;;
11709;SDS011;5911;51.036;6.972;2024-03-25T07:07:33;8.00;;;4.83;;
11709;SDS011;5911;51.036;6.972;2024-03-25T07:09:59;10.97;;;5.07;;
11709;SDS011;5911;51.036;6.972;2024-03-25T07:12:25;7.20;;;4.40;;
11709;SDS011;5911;51.036;6.972;2024-03-25T07:14:53;8.67;;;4.60;;
11709;SDS011;5911;51.036;6.972;2024-03-25T07:17:19;9.50;;;4.17;;
11709;SDS011;5911;51.036;6.972;2024-03-25T07:19:44;12.40;;;5.53;;
11709;SDS011;5911;51.036;6.972;2024-03-25T07:22:10;12.10;;;4.50;;
11709;SDS011;5911;51.036;6.972;2024-03-25T07:24:36;10.90;;;4.40;;
11709;SDS011;5911;51.036;6.972;2024-03-25T07:27:01;10.27;;;5.13;;
11709;SDS011;5911;51.036;6.972;2024-03-25T07:29:27;7.87;;;4.77;;
11709;SDS011;5911;51.036;6.972;2024-03-25T07:31:54;12.33;;;5.00;;
11709;SDS011;5911;51.036;6.972;2024-03-25T07:34:20;9.23;;;5.17;;
11709;SDS011;5911;51.036;6.972;2024-03-25T07:36:46;12.03;;;5.70;;
11709;SDS011;5911;51.036;6.972;2024-03-25T07:39:12;9.37;;;4.67;;
11709;SDS011;5911;51.036;6.972;2024-03-25T07:41:37;9.73;;;4.67;;
11709;SDS011;5911;51.036;6.972;2024-03-25T07:44:03;8.03;;;4.50;;
11709;SDS011;5911;51.036;6.972;2024-03-25T07:46:29;9.53;;;5.07;;
11709;SDS011;5911;51.036;6.972;2024-03-25T07:48:56;11.57;;;4.90;;
11709;SDS011;5911;51.036;6.972;2024-03-25T07:51:22;8.90;;;5.00;;
11709;SDS011;5911;51.036;6.972;2024-03-25T07:53:48;10.82;;;4.85;;
11709;SDS011;5911;51.036;6.972;2024-03-25T07:56:14;9.20;;;4.73;;
11709;SDS011;5911;51.036;6.972;2024-03-25T07:58:40;14.07;;;5.50;;
11709;SDS011;5911;51.036;6.972;2024-03-25T08:01:06;10.70;;;4.97;;
11709;SDS011;5911;51.036;6.972;2024-03-25T08:03:32;12.57;;;5.70;;
11709;SDS011;5911;51.036;6.972;2024-03-25T08:05:59;9.60;;;5.53;;
11709;SDS011;5911;51.036;6.972;2024-03-25T08:08:24;9.20;;;4.77;;
11709;SDS011;5911;51.036;6.972;2024-03-25T08:10:50;9.05;;;4.72;;
11709;SDS011;5911;51.036;6.972;2024-03-25T08:13:16;11.57;;;4.50;;
11709;SDS011;5911;51.036;6.972;2024-03-25T08:15:41;8.77;;;4.50;;
11709;SDS011;5911;51.036;6.972;2024-03-25T08:18:07;11.47;;;4.97;;
11709;SDS011;5911;51.036;6.972;2024-03-25T08:20:33;14.30;;;5.17;;
11709;SDS011;5911;51.036;6.972;2024-03-25T08:23:00;12.73;;;5.30;;
11709;SDS011;5911;51.036;6.972;2024-03-25T08:25:25;8.88;;;4.82;;
11709;SDS011;5911;51.036;6.972;2024-03-25T08:27:51;9.80;;;4.47;;
11709;SDS011;5911;51.036;6.972;2024-03-25T08:30:17;10.03;;;4.07;;
11709;SDS011;5911;51.036;6.972;2024-03-25T08:32:42;10.70;;;4.30;;
11709;SDS011;5911;51.036;6.972;2024-03-25T08:35:08;10.03;;;5.13;;
11709;SDS011;5911;51.036;6.972;2024-03-25T08:37:34;11.10;;;4.67;;
11709;SDS011;5911;51.036;6.972;2024-03-25T08:40:01;11.07;;;4.90;;
11709;SDS011;5911;51.036;6.972;2024-03-25T08:42:26;10.03;;;4.73;;
11709;SDS011;5911;51.036;6.972;2024-03-25T08:44:52;12.90;;;5.47;;
11709;SDS011;5911;51.036;6.972;2024-03-25T08:47:18;9.77;;;4.33;;
11709;SDS011;5911;51.036;6.972;2024-03-25T08:49:44;8.90;;;3.47;;
11709;SDS011;5911;51.036;6.972;2024-03-25T08:52:09;10.00;;;3.50;;
11709;SDS011;5911;51.036;6.972;2024-03-25T08:54:36;9.30;;;4.07;;
11709;SDS011;5911;51.036;6.972;2024-03-25T08:57:04;9.97;;;3.83;;
11709;SDS011;5911;51.036;6.972;2024-03-25T08:59:29;8.77;;;3.93;;
11709;SDS011;5911;51.036;6.972;2024-03-25T09:01:55;7.47;;;3.87;;
11709;SDS011;5911;51.036;6.972;2024-03-25T09:04:21;9.53;;;3.70;;
11709;SDS011;5911;51.036;6.972;2024-03-25T09:06:46;8.77;;;3.43;;
11709;SDS011;5911;51.036;6.972;2024-03-25T09:09:13;8.77;;;3.33;;
11709;SDS011;5911;51.036;6.972;2024-03-25T09:11:57;8.67;;;3.10;;
11709;SDS011;5911;51.036;6.972;2024-03-25T09:14:24;10.67;;;2.70;;
11709;SDS011;5911;51.036;6.972;2024-03-25T09:16:50;7.47;;;2.40;;
11709;SDS011;5911;51.036;6.972;2024-03-25T09:19:16;9.40;;;2.80;;
11709;SDS011;5911;51.036;6.972;2024-03-25T09:21:42;7.43;;;2.37;;
11709;SDS011;5911;51.036;6.972;2024-03-25T09:24:08;6.10;;;2.80;;
11709;SDS011;5911;51.036;6.972;2024-03-25T09:26:33;7.77;;;3.60;;
11709;SDS011;5911;51.036;6.972;2024-03-25T09:28:59;9.50;;;3.50;;
11709;SDS011;5911;51.036;6.972;2024-03-25T09:31:26;8.67;;;2.83;;
11709;SDS011;5911;51.036;6.972;2024-03-25T09:33:52;5.07;;;2.67;;
11709;SDS011;5911;51.036;6.972;2024-03-25T09:36:17;5.17;;;2.50;;
11709;SDS011;5911;51.036;6.972;2024-03-25T09:38:44;15.27;;;3.40;;
11709;SDS011;5911;51.036;6.972;2024-03-25T09:41:10;13.23;;;4.57;;
11709;SDS011;5911;51.036;6.972;2024-03-25T09:43:38;10.43;;;3.83;;
11709;SDS011;5911;51.036;6.972;2024-03-25T09:46:08;8.83;;;3.00;;
11709;SDS011;5911;51.036;6.972;2024-03-25T09:48:36;11.85;;;3.50;;
11709;SDS011;5911;51.036;6.972;2024-03-25T09:51:01;7.43;;;3.07;;
11709;SDS011;5911;51.036;6.972;2024-03-25T09:53:27;8.97;;;3.37;;
11709;SDS011;5911;51.036;6.972;2024-03-25T09:55:53;4.27;;;2.33;;
11709;SDS011;5911;51.036;6.972;2024-03-25T09:58:19;6.93;;;3.03;;
11709;SDS011;5911;51.036;6.972;2024-03-25T10:00:45;6.67;;;2.60;;
11709;SDS011;5911;51.036;6.972;2024-03-25T10:03:11;5.87;;;3.00;;
11709;SDS011;5911;51.036;6.972;2024-03-25T10:05:38;7.67;;;3.10;;
11709;SDS011;5911;51.036;6.972;2024-03-25T10:08:04;13.90;;;3.40;;
11709;SDS011;5911;51.036;6.972;2024-03-25T10:10:30;7.03;;;2.70;;
11709;SDS011;5911;51.036;6.972;2024-03-25T10:12:56;5.20;;;2.30;;
11709;SDS011;5911;51.036;6.972;2024-03-25T10:15:22;7.93;;;2.87;;
11709;SDS011;5911;51.036;6.972;2024-03-25T10:17:48;6.50;;;2.13;;
11709;SDS011;5911;51.036;6.972;2024-03-25T10:20:14;6.87;;;2.80;;
11709;SDS011;5911;51.036;6.972;2024-03-25T10:22:42;5.07;;;2.27;;
11709;SDS011;5911;51.036;6.972;2024-03-25T10:25:18;7.87;;;3.20;;
11709;SDS011;5911;51.036;6.972;2024-03-25T10:27:52;8.60;;;3.57;;
11709;SDS011;5911;51.036;6.972;2024-03-25T10:30:18;12.53;;;3.10;;
11709;SDS011;5911;51.036;6.972;2024-03-25T10:32:44;4.83;;;2.73;;
11709;SDS011;5911;51.036;6.972;2024-03-25T10:35:10;7.87;;;3.07;;
11709;SDS011;5911;51.036;6.972;2024-03-25T10:37:38;5.60;;;2.97;;
11709;SDS011;5911;51.036;6.972;2024-03-25T10:40:06;8.63;;;3.30;;
11709;SDS011;5911;51.036;6.972;2024-03-25T10:42:32;8.40;;;3.23;;
11709;SDS011;5911;51.036;6.972;2024-03-25T10:44:59;8.57;;;3.07;;
11709;SDS011;5911;51.036;6.972;2024-03-25T10:47:26;5.53;;;3.20;;
11709;SDS011;5911;51.036;6.972;2024-03-25T10:49:55;8.30;;;2.77;;
11709;SDS011;5911;51.036;6.972;2024-03-25T10:52:22;5.53;;;2.70;;
11709;SDS011;5911;51.036;6.972;2024-03-25T10:54:49;5.97;;;3.03;;
11709;SDS011;5911;51.036;6.972;2024-03-25T10:57:16;6.28;;;3.00;;
11709;SDS011;5911;51.036;6.972;2024-03-25T10:59:42;7.20;;;3.67;;
11709;SDS011;5911;51.036;6.972;2024-03-25T11:02:08;10.73;;;3.40;;
11709;SDS011;5911;51.036;6.972;2024-03-25T11:04:34;8.47;;;3.63;;
11709;SDS011;5911;51.036;6.972;2024-03-25T11:07:06;5.85;;;2.80;;
11709;SDS011;5911;51.036;6.972;2024-03-25T11:09:32;5.43;;;3.00;;
11709;SDS011;5911;51.036;6.972;2024-03-25T11:11:58;6.93;;;2.90;;
11709;SDS011;5911;51.036;6.972;2024-03-25T11:14:26;4.63;;;2.77;;
11709;SDS011;5911;51.036;6.972;2024-03-25T11:16:52;6.15;;;2.80;;
11709;SDS011;5911;51.036;6.972;2024-03-25T11:19:17;9.30;;;2.97;;
11709;SDS011;5911;51.036;6.972;2024-03-25T11:21:43;8.02;;;3.10;;
11709;SDS011;5911;51.036;6.972;2024-03-25T11:24:09;8.87;;;3.30;;
11709;SDS011;5911;51.036;6.972;2024-03-25T11:26:35;7.28;;;2.95;;
11709;SDS011;5911;51.036;6.972;2024-03-25T11:29:05;5.57;;;2.67;;
11709;SDS011;5911;51.036;6.972;2024-03-25T11:31:32;3.93;;;2.00;;
11709;SDS011;5911;51.036;6.972;2024-03-25T11:34:02;4.60;;;1.80;;
11709;SDS011;5911;51.036;6.972;2024-03-25T11:36:29;5.43;;;2.20;;
11709;SDS011;5911;51.036;6.972;2024-03-25T11:38:58;6.72;;;2.15;;
11709;SDS011;5911;51.036;6.972;2024-03-25T11:41:24;4.70;;;1.95;;
11709;SDS011;5911;51.036;6.972;2024-03-25T11:43:49;8.57;;;2.20;;
11709;SDS011;5911;51.036;6.972;2024-03-25T11:46:17;6.10;;;2.13;;
11709;SDS011;5911;51.036;6.972;2024-03-25T11:48:44;5.93;;;2.13;;
11709;SDS011;5911;51.036;6.972;2024-03-25T11:51:11;5.68;;;2.33;;
11709;SDS011;5911;51.036;6.972;2024-03-25T11:53:36;5.60;;;1.93;;
11709;SDS011;5911;51.036;6.972;2024-03-25T11:56:02;5.13;;;2.17;;
11709;SDS011;5911;51.036;6.972;2024-03-25T11:58:28;4.35;;;2.00;;
11709;SDS011;5911;51.036;6.972;2024-03-25T12:00:54;6.70;;;2.17;;
11709;SDS011;5911;51.036;6.972;2024-03-25T12:03:20;4.82;;;2.53;;
11709;SDS011;5911;51.036;6.972;2024-03-25T12:05:47;4.90;;;2.08;;
11709;SDS011;5911;51.036;6.972;2024-03-25T12:08:12;7.30;;;2.75;;
11709;SDS011;5911;51.036;6.972;2024-03-25T12:10:38;5.18;;;2.10;;
11709;SDS011;5911;51.036;6.972;2024-03-25T12:13:34;4.88;;;1.98;;
11709;SDS011;5911;51.036;6.972;2024-03-25T12:16:00;4.90;;;2.05;;
11709;SDS011;5911;51.036;6.972;2024-03-25T12:18:26;3.42;;;1.92;;
11709;SDS011;5911;51.036;6.972;2024-03-25T12:20:53;5.35;;;1.95;;
11709;SDS011;5911;51.036;6.972;2024-03-25T12:23:19;6.05;;;1.80;;
11709;SDS011;5911;51.036;6.972;2024-03-25T12:25:47;6.00;;;2.00;;
11709;SDS011;5911;51.036;6.972;2024-03-25T12:28:13;6.75;;;2.70;;
11709;SDS011;5911;51.036;6.972;2024-03-25T12:30:48;6.35;;;2.22;;
11709;SDS011;5911;51.036;6.972;2024-03-25T12:33:14;4.60;;;1.90;;
11709;SDS011;5911;51.036;6.972;2024-03-25T12:35:41;5.07;;;1.85;;
11709;SDS011;5911;51.036;6.972;2024-03-25T12:38:08;4.53;;;2.15;;
11709;SDS011;5911;51.036;6.972;2024-03-25T12:40:33;5.70;;;2.00;;
11709;SDS011;5911;51.036;6.972;2024-03-25T12:42:59;4.00;;;2.10;;
11709;SDS011;5911;51.036;6.972;2024-03-25T12:45:25;4.93;;;2.13;;
11709;SDS011;5911;51.036;6.972;2024-03-25T12:47:50;3.10;;;2.03;;
11709;SDS011;5911;51.036;6.972;2024-03-25T12:50:16;5.93;;;1.90;;
11709;SDS011;5911;51.036;6.972;2024-03-25T12:52:42;6.13;;;2.08;;
11709;SDS011;5911;51.036;6.972;2024-03-25T12:55:09;6.65;;;2.50;;
11709;SDS011;5911;51.036;6.972;2024-03-25T12:57:35;6.65;;;2.90;;
11709;SDS011;5911;51.036;6.972;2024-03-25T13:00:00;5.22;;;2.17;;
11709;SDS011;5911;51.036;6.972;2024-03-25T13:02:26;5.43;;;2.33;;
11709;SDS011;5911;51.036;6.972;2024-03-25T13:04:52;5.28;;;1.95;;
11709;SDS011;5911;51.036;6.972;2024-03-25T13:07:18;7.78;;;2.47;;
11709;SDS011;5911;51.036;6.972;2024-03-25T13:09:43;5.93;;;2.58;;
11709;SDS011;5911;51.036;6.972;2024-03-25T13:12:10;3.20;;;2.13;;
11709;SDS011;5911;51.036;6.972;2024-03-25T13:14:36;5.82;;;2.00;;
11709;SDS011;5911;51.036;6.972;2024-03-25T13:17:02;2.28;;;1.75;;
11709;SDS011;5911;51.036;6.972;2024-03-25T13:19:28;3.70;;;1.90;;
11709;SDS011;5911;51.036;6.972;2024-03-25T13:21:55;4.38;;;2.08;;
11709;SDS011;5911;51.036;6.972;2024-03-25T13:24:20;6.07;;;2.42;;
11709;SDS011;5911;51.036;6.972;2024-03-25T13:26:46;4.38;;;2.10;;
11709;SDS011;5911;51.036;6.972;2024-03-25T13:29:13;5.22;;;2.10;;
11709;SDS011;5911;51.036;6.972;2024-03-25T13:31:39;5.97;;;2.20;;
11709;SDS011;5911;51.036;6.972;2024-03-25T13:34:04;4.38;;;2.10;;
11709;SDS011;5911;51.036;6.972;2024-03-25T13:36:31;5.68;;;2.10;;
11709;SDS011;5911;51.036;6.972;2024-03-25T13:38:56;3.97;;;2.13;;
11709;SDS011;5911;51.036;6.972;2024-03-25T13:41:22;3.15;;;1.65;;
11709;SDS011;5911;51.036;6.972;2024-03-25T13:43:48;5.70;;;2.25;;
11709;SDS011;5911;51.036;6.972;2024-03-25T13:46:15;3.90;;;1.67;;
11709;SDS011;5911;51.036;6.972;2024-03-25T13:48:41;3.30;;;1.70;;
11709;SDS011;5911;51.036;6.972;2024-03-25T13:51:06;5.22;;;1.77;;
11709;SDS011;5911;51.036;6.972;2024-03-25T13:53:32;4.25;;;1.55;;
11709;SDS011;5911;51.036;6.972;2024-03-25T13:55:58;3.63;;;1.63;;
11709;SDS011;5911;51.036;6.972;2024-03-25T13:58:24;4.35;;;1.60;;
11709;SDS011;5911;51.036;6.972;2024-03-25T14:00:50;3.22;;;1.30;;
11709;SDS011;5911;51.036;6.972;2024-03-25T14:03:17;3.53;;;1.58;;
11709;SDS011;5911;51.036;6.972;2024-03-25T14:05:42;3.35;;;1.40;;
11709;SDS011;5911;51.036;6.972;2024-03-25T14:08:08;4.22;;;1.75;;
11709;SDS011;5911;51.036;6.972;2024-03-25T14:10:34;2.70;;;1.60;;
11709;SDS011;5911;51.036;6.972;2024-03-25T14:13:00;3.83;;;1.65;;
11709;SDS011;5911;51.036;6.972;2024-03-25T14:15:25;3.08;;;1.55;;
11709;SDS011;5911;51.036;6.972;2024-03-25T14:17:51;3.65;;;1.42;;
11709;SDS011;5911;51.036;6.972;2024-03-25T14:20:18;2.80;;;1.17;;
11709;SDS011;5911;51.036;6.972;2024-03-25T14:22:44;2.95;;;1.42;;
11709;SDS011;5911;51.036;6.972;2024-03-25T14:25:09;2.95;;;1.67;;
11709;SDS011;5911;51.036;6.972;2024-03-25T14:27:35;5.45;;;1.70;;
11709;SDS011;5911;51.036;6.972;2024-03-25T14:30:01;3.58;;;1.60;;
11709;SDS011;5911;51.036;6.972;2024-03-25T14:32:26;2.45;;;1.42;;
11709;SDS011;5911;51.036;6.972;2024-03-25T14:34:52;4.57;;;1.70;;
11709;SDS011;5911;51.036;6.972;2024-03-25T14:37:19;3.10;;;1.23;;
11709;SDS011;5911;51.036;6.972;2024-03-25T14:39:45;2.78;;;1.30;;
11709;SDS011;5911;51.036;6.972;2024-03-25T14:42:10;2.67;;;1.27;;
11709;SDS011;5911;51.036;6.972;2024-03-25T14:44:36;3.55;;;1.60;;
11709;SDS011;5911;51.036;6.972;2024-03-25T14:47:02;4.78;;;1.80;;
11709;SDS011;5911;51.036;6.972;2024-03-25T14:49:28;3.38;;;1.90;;
11709;SDS011;5911;51.036;6.972;2024-03-25T14:51:54;3.28;;;1.50;;
11709;SDS011;5911;51.036;6.972;2024-03-25T14:54:21;5.80;;;1.77;;